sensor_id;sensor_type;location;lat;lon;timestamp;pressure;altitude;pressure_sealevel;temperature;humidity
40946;BME280;55635;50.264;11.918;2023-02-12T00:01:57;97363.66;;;6.44;84.93
40946;BME280;55635;50.264;11.918;2023-02-12T00:04:38;97362.94;;;6.53;84.87
40946;BME280;55635;50.264;11.918;2023-02-12T00:07:19;97364.16;;;6.60;84.63
40946;BME280;55635;50.264;11.918;2023-02-12T00:10:00;97358.91;;;6.60;84.08
40946;BME280;55635;50.264;11.918;2023-02-12T00:12:41;97353.72;;;6.47;85.12
40946;BME280;55635;50.264;11.918;2023-02-12T00:15:22;97347.47;;;6.48;85.00
40946;BME280;55635;50.264;11.918;2023-02-12T00:18:03;97351.56;;;6.52;85.25
40946;BME280;55635;50.264;11.918;2023-02-12T00:20:44;97338.03;;;6.46;84.77
40946;BME280;55635;50.264;11.918;2023-02-12T00:23:25;97355.75;;;6.55;85.29
40946;BME280;55635;50.264;11.918;2023-02-12T00:26:09;97342.81;;;6.52;85.07
40946;BME280;55635;50.264;11.918;2023-02-12T00:28:51;97345.91;;;6.46;85.41
40946;BME280;55635;50.264;11.918;2023-02-12T00:31:33;97350.63;;;6.65;84.44
40946;BME280;55635;50.264;11.918;2023-02-12T00:34:13;97351.69;;;6.62;83.90
40946;BME280;55635;50.264;11.918;2023-02-12T00:36:55;97358.91;;;6.71;84.10
40946;BME280;55635;50.264;11.918;2023-02-12T00:39:36;97341.63;;;6.67;83.37
40946;BME280;55635;50.264;11.918;2023-02-12T00:42:18;97339.59;;;6.60;83.58
40946;BME280;55635;50.264;11.918;2023-02-12T00:44:59;97351.94;;;6.59;84.48
40946;BME280;55635;50.264;11.918;2023-02-12T00:47:40;97351.56;;;6.64;83.78
40946;BME280;55635;50.264;11.918;2023-02-12T00:50:22;97349.31;;;6.70;83.26
40946;BME280;55635;50.264;11.918;2023-02-12T00:53:06;97345.00;;;6.69;83.42
40946;BME280;55635;50.264;11.918;2023-02-12T00:55:47;97351.69;;;6.73;83.17
40946;BME280;55635;50.264;11.918;2023-02-12T00:58:28;97356.41;;;6.81;82.53
40946;BME280;55635;50.264;11.918;2023-02-12T01:01:29;97356.75;;;6.76;83.70
40946;BME280;55635;50.264;11.918;2023-02-12T01:04:10;97351.22;;;6.79;82.77
40946;BME280;55635;50.264;11.918;2023-02-12T01:06:52;97363.22;;;6.83;83.28
40946;BME280;55635;50.264;11.918;2023-02-12T01:09:33;97353.16;;;6.88;82.65
40946;BME280;55635;50.264;11.918;2023-02-12T01:12:14;97352.44;;;6.86;82.95
40946;BME280;55635;50.264;11.918;2023-02-12T01:14:55;97362.72;;;7.00;82.20
40946;BME280;55635;50.264;11.918;2023-02-12T01:17:36;97343.19;;;6.92;81.96
40946;BME280;55635;50.264;11.918;2023-02-12T01:20:21;97354.56;;;7.03;81.91
40946;BME280;55635;50.264;11.918;2023-02-12T01:23:02;97356.03;;;6.96;81.96
40946;BME280;55635;50.264;11.918;2023-02-12T01:25:46;97358.19;;;6.91;82.68
40946;BME280;55635;50.264;11.918;2023-02-12T01:28:27;97357.47;;;6.89;82.90
40946;BME280;55635;50.264;11.918;2023-02-12T01:31:14;97370.63;;;7.00;82.78
40946;BME280;55635;50.264;11.918;2023-02-12T01:33:58;97365.97;;;6.93;83.37
40946;BME280;55635;50.264;11.918;2023-02-12T01:36:39;97365.75;;;6.96;82.89
40946;BME280;55635;50.264;11.918;2023-02-12T01:39:20;97373.88;;;7.04;82.78
40946;BME280;55635;50.264;11.918;2023-02-12T01:42:03;97359.38;;;6.98;82.90
40946;BME280;55635;50.264;11.918;2023-02-12T01:47:53;97364.91;;;6.84;83.62
40946;BME280;55635;50.264;11.918;2023-02-12T01:50:36;97373.66;;;6.96;83.06
40946;BME280;55635;50.264;11.918;2023-02-12T01:53:20;97368.25;;;6.97;83.05
40946;BME280;55635;50.264;11.918;2023-02-12T01:56:03;97370.41;;;7.03;82.92
40946;BME280;55635;50.264;11.918;2023-02-12T01:58:45;97367.69;;;6.94;83.15
40946;BME280;55635;50.264;11.918;2023-02-12T02:01:29;97367.69;;;6.94;82.84
40946;BME280;55635;50.264;11.918;2023-02-12T02:04:18;97352.91;;;6.91;83.37
40946;BME280;55635;50.264;11.918;2023-02-12T02:07:04;97375.22;;;6.98;83.49
40946;BME280;55635;50.264;11.918;2023-02-12T02:09:46;97372.81;;;6.95;83.15
40946;BME280;55635;50.264;11.918;2023-02-12T02:12:27;97374.50;;;7.07;82.44
40946;BME280;55635;50.264;11.918;2023-02-12T02:15:30;97373.75;;;6.94;83.00
40946;BME280;55635;50.264;11.918;2023-02-12T02:18:23;97368.84;;;7.01;83.14
40946;BME280;55635;50.264;11.918;2023-02-12T02:24:35;97372.56;;;7.09;83.22
40946;BME280;55635;50.264;11.918;2023-02-12T02:30:52;97380.59;;;7.08;83.46
40946;BME280;55635;50.264;11.918;2023-02-12T02:33:54;97370.41;;;7.15;83.13
40946;BME280;55635;50.264;11.918;2023-02-12T02:40:17;97383.13;;;7.21;82.84
40946;BME280;55635;50.264;11.918;2023-02-12T02:43:08;97376.66;;;7.25;82.67
40946;BME280;55635;50.264;11.918;2023-02-12T02:46:00;97382.75;;;7.14;82.42
40946;BME280;55635;50.264;11.918;2023-02-12T02:48:51;97380.97;;;7.15;82.81
40946;BME280;55635;50.264;11.918;2023-02-12T02:51:40;97372.78;;;7.06;82.95
40946;BME280;55635;50.264;11.918;2023-02-12T02:54:31;97376.66;;;7.02;83.50
40946;BME280;55635;50.264;11.918;2023-02-12T02:57:18;97367.06;;;7.01;83.69
40946;BME280;55635;50.264;11.918;2023-02-12T03:00:13;97385.63;;;7.11;83.76
40946;BME280;55635;50.264;11.918;2023-02-12T03:03:12;97370.63;;;7.00;83.63
40946;BME280;55635;50.264;11.918;2023-02-12T03:06:03;97381.56;;;6.96;84.48
40946;BME280;55635;50.264;11.918;2023-02-12T03:08:55;97379.16;;;7.04;83.99
40946;BME280;55635;50.264;11.918;2023-02-12T03:11:37;97384.81;;;6.99;83.62
40946;BME280;55635;50.264;11.918;2023-02-12T03:14:52;97386.13;;;7.05;83.93
40946;BME280;55635;50.264;11.918;2023-02-12T03:17:40;97364.91;;;6.84;84.29
40946;BME280;55635;50.264;11.918;2023-02-12T03:20:30;97383.59;;;7.03;83.90
40946;BME280;55635;50.264;11.918;2023-02-12T03:23:20;97380.47;;;7.09;83.35
40946;BME280;55635;50.264;11.918;2023-02-12T03:26:05;97379.53;;;7.10;83.08
40946;BME280;55635;50.264;11.918;2023-02-12T03:28:47;97376.91;;;6.99;82.93
40946;BME280;55635;50.264;11.918;2023-02-12T03:35:01;97380.72;;;6.95;83.00
40946;BME280;55635;50.264;11.918;2023-02-12T03:37:57;97396.44;;;7.08;82.79
40946;BME280;55635;50.264;11.918;2023-02-12T03:40:45;97392.47;;;7.13;82.46
40946;BME280;55635;50.264;11.918;2023-02-12T03:44:42;97389.97;;;7.12;82.76
40946;BME280;55635;50.264;11.918;2023-02-12T03:47:01;97395.00;;;7.15;82.41
40946;BME280;55635;50.264;11.918;2023-02-12T03:49:59;97405.88;;;7.22;83.00
40946;BME280;55635;50.264;11.918;2023-02-12T03:52:42;97406.47;;;7.25;82.33
40946;BME280;55635;50.264;11.918;2023-02-12T03:55:25;97402.66;;;6.96;83.92
40946;BME280;55635;50.264;11.918;2023-02-12T03:58:09;97405.66;;;7.13;83.23
40946;BME280;55635;50.264;11.918;2023-02-12T04:00:52;97411.91;;;7.24;82.74
40946;BME280;55635;50.264;11.918;2023-02-12T04:03:33;97400.16;;;7.05;82.88
40946;BME280;55635;50.264;11.918;2023-02-12T04:06:24;97394.75;;;7.07;83.32
40946;BME280;55635;50.264;11.918;2023-02-12T04:09:08;97402.66;;;7.18;82.79
40946;BME280;55635;50.264;11.918;2023-02-12T04:18:32;97423.75;;;7.07;83.19
40946;BME280;55635;50.264;11.918;2023-02-12T04:28:47;97427.94;;;6.98;84.49
40946;BME280;55635;50.264;11.918;2023-02-12T04:34:53;97448.53;;;6.82;85.36
40946;BME280;55635;50.264;11.918;2023-02-12T04:37:45;97444.84;;;6.85;84.20
40946;BME280;55635;50.264;11.918;2023-02-12T04:40:29;97443.38;;;6.92;84.05
40946;BME280;55635;50.264;11.918;2023-02-12T04:43:10;97436.00;;;6.97;83.74
40946;BME280;55635;50.264;11.918;2023-02-12T04:45:51;97436.00;;;7.08;83.36
40946;BME280;55635;50.264;11.918;2023-02-12T04:48:32;97429.41;;;7.02;83.72
40946;BME280;55635;50.264;11.918;2023-02-12T04:51:14;97434.53;;;7.04;83.77
40946;BME280;55635;50.264;11.918;2023-02-12T04:53:55;97429.34;;;6.80;83.94
40946;BME280;55635;50.264;11.918;2023-02-12T04:56:35;97439.66;;;6.83;84.55
40946;BME280;55635;50.264;11.918;2023-02-12T04:59:16;97432.97;;;6.90;84.53
40946;BME280;55635;50.264;11.918;2023-02-12T05:01:57;97439.72;;;7.05;83.58
40946;BME280;55635;50.264;11.918;2023-02-12T05:04:38;97447.97;;;7.01;83.38
40946;BME280;55635;50.264;11.918;2023-02-12T05:07:19;97440.91;;;7.01;83.09
40946;BME280;55635;50.264;11.918;2023-02-12T05:10:00;97442.69;;;7.01;81.91
40946;BME280;55635;50.264;11.918;2023-02-12T05:12:41;97446.06;;;7.03;82.30
40946;BME280;55635;50.264;11.918;2023-02-12T05:15:22;97446.78;;;6.94;83.82
40946;BME280;55635;50.264;11.918;2023-02-12T05:18:03;97446.31;;;7.00;83.73
40946;BME280;55635;50.264;11.918;2023-02-12T05:20:44;97449.50;;;6.92;84.45
40946;BME280;55635;50.264;11.918;2023-02-12T05:23:26;97448.81;;;7.01;84.37
40946;BME280;55635;50.264;11.918;2023-02-12T05:26:20;97442.59;;;7.02;85.34
40946;BME280;55635;50.264;11.918;2023-02-12T05:29:01;97450.59;;;7.01;85.63
40946;BME280;55635;50.264;11.918;2023-02-12T05:31:43;97428.19;;;6.95;85.38
40946;BME280;55635;50.264;11.918;2023-02-12T05:34:24;97446.63;;;7.06;85.74
40946;BME280;55635;50.264;11.918;2023-02-12T05:37:04;97456.84;;;7.11;85.61
40946;BME280;55635;50.264;11.918;2023-02-12T05:39:48;97451.44;;;7.12;85.81
40946;BME280;55635;50.264;11.918;2023-02-12T05:42:30;97450.72;;;7.22;85.25
40946;BME280;55635;50.264;11.918;2023-02-12T05:45:11;97441.88;;;7.11;85.22
40946;BME280;55635;50.264;11.918;2023-02-12T05:47:52;97459.00;;;7.28;85.01
40946;BME280;55635;50.264;11.918;2023-02-12T05:50:33;97459.13;;;7.27;85.10
40946;BME280;55635;50.264;11.918;2023-02-12T05:53:21;97453.63;;;7.30;83.30
40946;BME280;55635;50.264;11.918;2023-02-12T05:56:23;97461.78;;;7.27;83.93
40946;BME280;55635;50.264;11.918;2023-02-12T05:59:10;97464.38;;;7.16;84.08
40946;BME280;55635;50.264;11.918;2023-02-12T06:01:52;97467.53;;;7.21;83.62
40946;BME280;55635;50.264;11.918;2023-02-12T06:04:33;97464.16;;;6.96;84.25
40946;BME280;55635;50.264;11.918;2023-02-12T06:07:14;97470.84;;;7.00;84.38
40946;BME280;55635;50.264;11.918;2023-02-12T06:09:55;97463.31;;;6.96;84.00
40946;BME280;55635;50.264;11.918;2023-02-12T06:12:36;97488.59;;;6.98;83.89
40946;BME280;55635;50.264;11.918;2023-02-12T06:15:17;97481.44;;;7.11;83.28
40946;BME280;55635;50.264;11.918;2023-02-12T06:17:57;97476.88;;;7.02;83.45
40946;BME280;55635;50.264;11.918;2023-02-12T06:20:38;97496.03;;;7.04;83.39
40946;BME280;55635;50.264;11.918;2023-02-12T06:23:24;97485.88;;;7.11;82.94
40946;BME280;55635;50.264;11.918;2023-02-12T06:26:05;97495.19;;;7.04;82.23
40946;BME280;55635;50.264;11.918;2023-02-12T06:28:46;97496.41;;;7.00;83.39
40946;BME280;55635;50.264;11.918;2023-02-12T06:31:31;97493.88;;;7.09;83.35
40946;BME280;55635;50.264;11.918;2023-02-12T06:34:13;97496.03;;;6.93;84.28
40946;BME280;55635;50.264;11.918;2023-02-12T06:36:54;97491.13;;;7.00;83.91
40946;BME280;55635;50.264;11.918;2023-02-12T06:39:35;97503.00;;;7.05;83.67
40946;BME280;55635;50.264;11.918;2023-02-12T06:42:16;97498.66;;;7.04;84.26
40946;BME280;55635;50.264;11.918;2023-02-12T06:44:57;97501.31;;;7.04;84.53
40946;BME280;55635;50.264;11.918;2023-02-12T06:47:38;97509.97;;;7.18;84.05
40946;BME280;55635;50.264;11.918;2023-02-12T06:50:19;97508.50;;;7.02;83.77
40946;BME280;55635;50.264;11.918;2023-02-12T06:53:00;97514.63;;;7.03;84.16
40946;BME280;55635;50.264;11.918;2023-02-12T06:55:41;97513.53;;;7.05;84.33
40946;BME280;55635;50.264;11.918;2023-02-12T06:58:22;97519.06;;;7.02;84.30
40946;BME280;55635;50.264;11.918;2023-02-12T07:01:18;97514.50;;;7.04;84.59
40946;BME280;55635;50.264;11.918;2023-02-12T07:04:01;97510.06;;;6.94;83.89
40946;BME280;55635;50.264;11.918;2023-02-12T07:06:42;97522.63;;;7.01;83.81
40946;BME280;55635;50.264;11.918;2023-02-12T07:09:23;97516.53;;;7.01;83.62
40946;BME280;55635;50.264;11.918;2023-02-12T07:12:04;97512.69;;;6.94;84.27
40946;BME280;55635;50.264;11.918;2023-02-12T07:14:45;97527.22;;;7.10;83.62
40946;BME280;55635;50.264;11.918;2023-02-12T07:17:29;97515.47;;;7.15;82.77
40946;BME280;55635;50.264;11.918;2023-02-12T07:20:11;97528.78;;;7.13;82.68
40946;BME280;55635;50.264;11.918;2023-02-12T07:22:51;97536.34;;;7.18;82.34
40946;BME280;55635;50.264;11.918;2023-02-12T07:25:32;97513.47;;;6.83;84.98
40946;BME280;55635;50.264;11.918;2023-02-12T07:28:14;97534.66;;;7.05;84.72
40946;BME280;55635;50.264;11.918;2023-02-12T07:30:55;97536.31;;;7.06;84.77
40946;BME280;55635;50.264;11.918;2023-02-12T07:33:37;97542.69;;;7.15;83.84
40946;BME280;55635;50.264;11.918;2023-02-12T07:36:19;97540.78;;;7.17;84.16
40946;BME280;55635;50.264;11.918;2023-02-12T07:39:00;97538.72;;;7.09;83.39
40946;BME280;55635;50.264;11.918;2023-02-12T07:41:41;97532.63;;;7.09;83.27
40946;BME280;55635;50.264;11.918;2023-02-12T07:44:22;97548.44;;;7.09;83.64
40946;BME280;55635;50.264;11.918;2023-02-12T07:47:03;97551.09;;;7.09;83.83
40946;BME280;55635;50.264;11.918;2023-02-12T07:49:45;97560.03;;;6.95;84.71
40946;BME280;55635;50.264;11.918;2023-02-12T07:52:26;97557.00;;;6.89;84.31
40946;BME280;55635;50.264;11.918;2023-02-12T07:55:07;97576.00;;;7.05;84.80
40946;BME280;55635;50.264;11.918;2023-02-12T07:57:48;97577.78;;;7.04;84.59
40946;BME280;55635;50.264;11.918;2023-02-12T08:00:29;97558.56;;;6.91;84.89
40946;BME280;55635;50.264;11.918;2023-02-12T08:03:10;97579.19;;;6.97;84.75
40946;BME280;55635;50.264;11.918;2023-02-12T08:05:51;97565.69;;;7.02;84.24
40946;BME280;55635;50.264;11.918;2023-02-12T08:08:31;97568.38;;;6.89;84.82
40946;BME280;55635;50.264;11.918;2023-02-12T08:11:14;97551.38;;;6.58;85.73
40946;BME280;55635;50.264;11.918;2023-02-12T08:13:57;97574.59;;;6.88;85.24
40946;BME280;55635;50.264;11.918;2023-02-12T08:16:40;97575.59;;;6.98;84.96
40946;BME280;55635;50.264;11.918;2023-02-12T08:19:21;97578.03;;;7.12;84.37
40946;BME280;55635;50.264;11.918;2023-02-12T08:22:02;97569.44;;;7.22;83.69
40946;BME280;55635;50.264;11.918;2023-02-12T08:24:44;97573.66;;;7.24;83.86
40946;BME280;55635;50.264;11.918;2023-02-12T08:27:25;97571.03;;;7.24;83.92
40946;BME280;55635;50.264;11.918;2023-02-12T08:30:06;97573.53;;;7.26;83.56
40946;BME280;55635;50.264;11.918;2023-02-12T08:32:51;97589.63;;;7.34;83.34
40946;BME280;55635;50.264;11.918;2023-02-12T08:35:31;97579.53;;;7.28;83.97
40946;BME280;55635;50.264;11.918;2023-02-12T08:38:12;97584.09;;;6.91;85.24
40946;BME280;55635;50.264;11.918;2023-02-12T08:40:53;97587.63;;;6.55;87.75
40946;BME280;55635;50.264;11.918;2023-02-12T08:43:35;97587.63;;;6.55;88.43
40946;BME280;55635;50.264;11.918;2023-02-12T08:46:20;97591.69;;;6.48;89.52
40946;BME280;55635;50.264;11.918;2023-02-12T08:49:05;97571.22;;;5.41;94.67
40946;BME280;55635;50.264;11.918;2023-02-12T08:51:50;97595.84;;;5.40;97.28
40946;BME280;55635;50.264;11.918;2023-02-12T08:54:31;97607.59;;;5.60;97.50
40946;BME280;55635;50.264;11.918;2023-02-12T08:57:12;97599.63;;;5.61;96.47
40946;BME280;55635;50.264;11.918;2023-02-12T08:59:53;97605.72;;;5.74;96.01
40946;BME280;55635;50.264;11.918;2023-02-12T09:02:34;97601.09;;;5.90;95.01
40946;BME280;55635;50.264;11.918;2023-02-12T09:05:15;97603.69;;;6.16;93.30
40946;BME280;55635;50.264;11.918;2023-02-12T09:07:56;97608.25;;;6.01;92.72
40946;BME280;55635;50.264;11.918;2023-02-12T09:10:42;97608.31;;;6.12;92.18
40946;BME280;55635;50.264;11.918;2023-02-12T09:13:24;97598.31;;;6.17;91.68
40946;BME280;55635;50.264;11.918;2023-02-12T09:16:06;97615.38;;;6.12;92.46
40946;BME280;55635;50.264;11.918;2023-02-12T09:18:47;97619.59;;;6.27;91.51
40946;BME280;55635;50.264;11.918;2023-02-12T09:21:28;97595.97;;;6.25;91.22
40946;BME280;55635;50.264;11.918;2023-02-12T09:24:09;97608.25;;;6.37;90.86
40946;BME280;55635;50.264;11.918;2023-02-12T09:26:50;97615.81;;;6.78;89.98
40946;BME280;55635;50.264;11.918;2023-02-12T09:29:34;97607.91;;;6.78;89.06
40946;BME280;55635;50.264;11.918;2023-02-12T09:32:15;97610.34;;;6.45;90.14
40946;BME280;55635;50.264;11.918;2023-02-12T09:34:56;97600.66;;;6.69;89.34
40946;BME280;55635;50.264;11.918;2023-02-12T09:37:37;97627.25;;;6.90;88.46
40946;BME280;55635;50.264;11.918;2023-02-12T09:41:00;97618.75;;;6.97;87.88
40946;BME280;55635;50.264;11.918;2023-02-12T09:52:29;97622.38;;;6.73;89.94
40946;BME280;55635;50.264;11.918;2023-02-12T09:55:17;97630.97;;;6.98;89.05
40946;BME280;55635;50.264;11.918;2023-02-12T10:23:43;97646.13;;;7.07;94.92
40946;BME280;55635;50.264;11.918;2023-02-12T10:26:36;97646.84;;;7.33;93.56
40946;BME280;55635;50.264;11.918;2023-02-12T10:29:23;97636.91;;;7.48;92.00
40946;BME280;55635;50.264;11.918;2023-02-12T10:32:24;97642.88;;;7.85;90.58
40946;BME280;55635;50.264;11.918;2023-02-12T10:35:17;97654.03;;;7.99;89.45
40946;BME280;55635;50.264;11.918;2023-02-12T10:38:23;97640.59;;;8.02;89.65
40946;BME280;55635;50.264;11.918;2023-02-12T10:41:05;97636.75;;;8.17;89.03
40946;BME280;55635;50.264;11.918;2023-02-12T10:43:47;97643.88;;;8.28;88.09
40946;BME280;55635;50.264;11.918;2023-02-12T10:55:34;97638.78;;;8.03;92.74
40946;BME280;55635;50.264;11.918;2023-02-12T10:58:22;97628.22;;;8.25;90.31
40946;BME280;55635;50.264;11.918;2023-02-12T11:06:31;97618.03;;;8.43;90.93
40946;BME280;55635;50.264;11.918;2023-02-12T11:09:35;97627.72;;;8.96;87.96
40946;BME280;55635;50.264;11.918;2023-02-12T11:12:32;97632.16;;;9.07;87.07
40946;BME280;55635;50.264;11.918;2023-02-12T11:15:24;97627.72;;;9.28;86.17
40946;BME280;55635;50.264;11.918;2023-02-12T11:18:09;97616.78;;;9.33;85.47
40946;BME280;55635;50.264;11.918;2023-02-12T11:21:10;97618.00;;;9.49;84.48
40946;BME280;55635;50.264;11.918;2023-02-12T11:23:52;97616.19;;;9.50;84.59
40946;BME280;55635;50.264;11.918;2023-02-12T11:30:19;97616.22;;;9.80;83.32
40946;BME280;55635;50.264;11.918;2023-02-12T11:36:21;97615.28;;;10.11;83.26
40946;BME280;55635;50.264;11.918;2023-02-12T11:39:04;97612.56;;;10.22;82.82
40946;BME280;55635;50.264;11.918;2023-02-12T11:41:52;97611.22;;;10.37;81.93
40946;BME280;55635;50.264;11.918;2023-02-12T11:44:40;97597.69;;;10.41;81.63
40946;BME280;55635;50.264;11.918;2023-02-12T11:47:29;97596.16;;;10.38;80.88
40946;BME280;55635;50.264;11.918;2023-02-12T11:50:27;97604.13;;;10.48;80.80
40946;BME280;55635;50.264;11.918;2023-02-12T11:53:08;97603.16;;;10.49;80.42
40946;BME280;55635;50.264;11.918;2023-02-12T11:56:05;97600.59;;;10.37;79.84
40946;BME280;55635;50.264;11.918;2023-02-12T11:58:49;97602.63;;;10.15;81.07
40946;BME280;55635;50.264;11.918;2023-02-12T12:01:33;97593.88;;;10.03;81.29
40946;BME280;55635;50.264;11.918;2023-02-12T12:04:17;97602.28;;;9.57;83.20
40946;BME280;55635;50.264;11.918;2023-02-12T12:07:19;97602.59;;;9.64;84.03
40946;BME280;55635;50.264;11.918;2023-02-12T12:10:33;97608.34;;;9.48;84.82
40946;BME280;55635;50.264;11.918;2023-02-12T12:13:20;97598.44;;;8.45;87.11
40946;BME280;55635;50.264;11.918;2023-02-12T12:16:18;97599.06;;;8.38;89.68
40946;BME280;55635;50.264;11.918;2023-02-12T12:19:31;97603.47;;;7.93;91.57
40946;BME280;55635;50.264;11.918;2023-02-12T12:22:52;97603.72;;;8.12;91.37
40946;BME280;55635;50.264;11.918;2023-02-12T12:25:57;97606.75;;;7.85;92.40
40946;BME280;55635;50.264;11.918;2023-02-12T12:32:02;97599.28;;;8.01;91.51
40946;BME280;55635;50.264;11.918;2023-02-12T12:34:44;97594.25;;;7.76;92.20
40946;BME280;55635;50.264;11.918;2023-02-12T12:37:46;97592.56;;;7.97;92.04
40946;BME280;55635;50.264;11.918;2023-02-12T12:40:45;97602.19;;;8.09;91.80
40946;BME280;55635;50.264;11.918;2023-02-12T13:00:30;97581.88;;;8.32;90.87
40946;BME280;55635;50.264;11.918;2023-02-12T13:09:23;97600.38;;;8.32;92.72
40946;BME280;55635;50.264;11.918;2023-02-12T13:15:45;97584.28;;;8.78;91.03
40946;BME280;55635;50.264;11.918;2023-02-12T13:24:48;97590.66;;;9.28;88.58
40946;BME280;55635;50.264;11.918;2023-02-12T13:27:38;97582.84;;;9.06;88.54
40946;BME280;55635;50.264;11.918;2023-02-12T13:30:44;97592.53;;;9.16;88.16
40946;BME280;55635;50.264;11.918;2023-02-12T13:33:42;97587.53;;;9.02;89.41
40946;BME280;55635;50.264;11.918;2023-02-12T13:36:24;97588.38;;;9.03;89.20
40946;BME280;55635;50.264;11.918;2023-02-12T13:42:50;97587.88;;;9.29;88.03
40946;BME280;55635;50.264;11.918;2023-02-12T13:46:17;97582.81;;;9.17;86.92
40946;BME280;55635;50.264;11.918;2023-02-12T13:52:32;97575.50;;;9.09;86.68
40946;BME280;55635;50.264;11.918;2023-02-12T13:55:24;97573.94;;;8.43;89.80
40946;BME280;55635;50.264;11.918;2023-02-12T14:04:31;97574.56;;;8.99;87.84
40946;BME280;55635;50.264;11.918;2023-02-12T14:07:14;97571.56;;;9.04;86.95
40946;BME280;55635;50.264;11.918;2023-02-12T14:12:37;97568.47;;;9.19;86.85
40946;BME280;55635;50.264;11.918;2023-02-12T14:15:35;97575.63;;;9.49;86.49
40946;BME280;55635;50.264;11.918;2023-02-12T14:18:35;97585.13;;;9.52;85.75
40946;BME280;55635;50.264;11.918;2023-02-12T14:27:46;97559.34;;;9.33;85.97
40946;BME280;55635;50.264;11.918;2023-02-12T14:30:38;97584.59;;;9.58;84.71
40946;BME280;55635;50.264;11.918;2023-02-12T14:33:24;97575.19;;;9.44;84.77
40946;BME280;55635;50.264;11.918;2023-02-12T14:44:57;97579.28;;;9.58;83.43
40946;BME280;55635;50.264;11.918;2023-02-12T14:50:25;97575.13;;;9.35;83.76
40946;BME280;55635;50.264;11.918;2023-02-12T14:53:29;97578.34;;;9.38;84.06
40946;BME280;55635;50.264;11.918;2023-02-12T14:56:12;97577.56;;;9.47;83.50
40946;BME280;55635;50.264;11.918;2023-02-12T14:58:55;97579.19;;;9.39;83.76
40946;BME280;55635;50.264;11.918;2023-02-12T15:01:38;97567.81;;;9.06;84.89
40946;BME280;55635;50.264;11.918;2023-02-12T15:04:40;97583.16;;;8.49;86.60
40946;BME280;55635;50.264;11.918;2023-02-12T15:07:51;97575.59;;;8.55;87.51
40946;BME280;55635;50.264;11.918;2023-02-12T15:10:45;97574.63;;;8.45;87.50
40946;BME280;55635;50.264;11.918;2023-02-12T15:13:51;97577.28;;;8.45;87.89
40946;BME280;55635;50.264;11.918;2023-02-12T15:19:52;97589.31;;;8.38;87.91
40946;BME280;55635;50.264;11.918;2023-02-12T15:22:38;97580.22;;;8.31;87.20
40946;BME280;55635;50.264;11.918;2023-02-12T15:25:27;97577.31;;;8.12;88.63
40946;BME280;55635;50.264;11.918;2023-02-12T15:28:22;97575.75;;;8.09;88.35
40946;BME280;55635;50.264;11.918;2023-02-12T15:31:06;97580.47;;;7.95;89.12
40946;BME280;55635;50.264;11.918;2023-02-12T15:33:52;97583.66;;;7.98;88.62
40946;BME280;55635;50.264;11.918;2023-02-12T15:36:35;97574.06;;;7.86;89.54
40946;BME280;55635;50.264;11.918;2023-02-12T15:39:20;97586.31;;;7.87;89.99
40946;BME280;55635;50.264;11.918;2023-02-12T15:42:02;97591.25;;;7.81;90.10
40946;BME280;55635;50.264;11.918;2023-02-12T15:44:43;97567.34;;;7.60;90.10
40946;BME280;55635;50.264;11.918;2023-02-12T15:47:24;97580.06;;;7.99;88.88
40946;BME280;55635;50.264;11.918;2023-02-12T15:50:16;97586.06;;;8.12;88.11
40946;BME280;55635;50.264;11.918;2023-02-12T15:52:58;97582.72;;;8.21;87.12
40946;BME280;55635;50.264;11.918;2023-02-12T15:55:42;97589.94;;;8.31;86.71
40946;BME280;55635;50.264;11.918;2023-02-12T15:58:36;97580.66;;;8.36;86.47
40946;BME280;55635;50.264;11.918;2023-02-12T16:01:28;97568.41;;;8.24;86.33
40946;BME280;55635;50.264;11.918;2023-02-12T16:04:10;97590.19;;;8.28;85.51
40946;BME280;55635;50.264;11.918;2023-02-12T16:06:51;97572.84;;;8.01;85.44
40946;BME280;55635;50.264;11.918;2023-02-12T16:09:36;97568.19;;;7.72;87.39
40946;BME280;55635;50.264;11.918;2023-02-12T16:12:22;97561.00;;;7.62;87.83
40946;BME280;55635;50.264;11.918;2023-02-12T16:15:04;97580.06;;;7.77;87.66
40946;BME280;55635;50.264;11.918;2023-02-12T16:17:46;97577.44;;;7.88;88.02
40946;BME280;55635;50.264;11.918;2023-02-12T16:20:29;97579.97;;;8.01;87.03
40946;BME280;55635;50.264;11.918;2023-02-12T16:23:12;97586.06;;;8.12;87.08
40946;BME280;55635;50.264;11.918;2023-02-12T16:25:54;97587.97;;;8.10;87.73
40946;BME280;55635;50.264;11.918;2023-02-12T16:28:35;97584.97;;;8.26;87.31
40946;BME280;55635;50.264;11.918;2023-02-12T16:31:17;97587.50;;;8.39;87.21
40946;BME280;55635;50.264;11.918;2023-02-12T16:33:58;97584.16;;;8.37;86.28
40946;BME280;55635;50.264;11.918;2023-02-12T16:36:45;97584.38;;;8.45;85.69
40946;BME280;55635;50.264;11.918;2023-02-12T16:42:33;97609.13;;;8.44;84.15
40946;BME280;55635;50.264;11.918;2023-02-12T16:51:00;97613.72;;;8.31;85.36
40946;BME280;55635;50.264;11.918;2023-02-12T16:53:45;97602.06;;;8.22;85.25
40946;BME280;55635;50.264;11.918;2023-02-12T16:56:33;97610.69;;;8.24;86.11
40946;BME280;55635;50.264;11.918;2023-02-12T16:59:18;97615.59;;;8.17;85.38
40946;BME280;55635;50.264;11.918;2023-02-12T17:02:12;97608.38;;;8.19;84.45
40946;BME280;55635;50.264;11.918;2023-02-12T17:04:53;97620.66;;;8.20;85.51
40946;BME280;55635;50.264;11.918;2023-02-12T17:07:35;97612.63;;;8.33;84.66
40946;BME280;55635;50.264;11.918;2023-02-12T17:10:16;97608.28;;;8.32;84.37
40946;BME280;55635;50.264;11.918;2023-02-12T17:12:57;97611.69;;;8.34;84.23
40946;BME280;55635;50.264;11.918;2023-02-12T17:15:59;97613.44;;;8.45;83.95
40946;BME280;55635;50.264;11.918;2023-02-12T17:18:41;97612.13;;;8.39;84.19
40946;BME280;55635;50.264;11.918;2023-02-12T17:21:32;97614.19;;;8.36;84.72
40946;BME280;55635;50.264;11.918;2023-02-12T17:24:22;97612.16;;;8.28;85.06
40946;BME280;55635;50.264;11.918;2023-02-12T17:27:03;97619.72;;;8.33;85.10
40946;BME280;55635;50.264;11.918;2023-02-12T17:29:46;97612.53;;;8.35;84.95
40946;BME280;55635;50.264;11.918;2023-02-12T17:32:27;97619.09;;;8.29;84.45